createdAt,value
2022-09-04T00:01:57.320Z,16.34
2022-09-04T00:04:34.511Z,16.22
2022-09-04T00:07:19.342Z,16.25
2022-09-04T00:09:58.206Z,16.25
2022-09-04T00:12:31.412Z,16.30
2022-09-04T00:15:05.501Z,16.25
2022-09-04T00:17:39.690Z,16.23
2022-09-04T00:20:14.001Z,16.27
2022-09-04T00:22:53.372Z,16.33
2022-09-04T00:25:26.101Z,16.40
2022-09-04T00:28:02.018Z,16.45
2022-09-04T00:30:30.030Z,16.58
2022-09-04T00:33:06.155Z,16.64
2022-09-04T00:35:40.961Z,16.72
2022-09-04T00:38:14.386Z,16.62
2022-09-04T00:40:44.591Z,16.72
2022-09-04T00:43:37.381Z,16.68
2022-09-04T00:46:49.599Z,16.57
2022-09-04T00:49:59.496Z,16.60
2022-09-04T00:52:42.594Z,16.44
2022-09-04T00:55:28.716Z,16.44
2022-09-04T00:58:10.539Z,16.45
2022-09-04T01:00:38.316Z,16.45
2022-09-04T01:03:25.261Z,16.46
2022-09-04T01:06:09.296Z,16.41
2022-09-04T01:08:56.642Z,16.41
2022-09-04T01:11:37.398Z,16.46
2022-09-04T01:14:13.429Z,16.40
2022-09-04T01:16:47.553Z,16.42
2022-09-04T01:19:31.128Z,16.36
2022-09-04T01:22:12.150Z,16.45
2022-09-04T01:24:55.401Z,16.43
2022-09-04T01:27:28.234Z,16.44
2022-09-04T01:30:07.349Z,16.35
2022-09-04T01:32:46.726Z,16.31
2022-09-04T01:35:27.174Z,16.31
2022-09-04T01:38:05.309Z,16.30
2022-09-04T01:40:43.142Z,16.23
2022-09-04T01:43:14.012Z,16.29
2022-09-04T01:46:06.048Z,16.06
2022-09-04T01:48:43.625Z,16.03
2022-09-04T01:51:25.013Z,16.05
2022-09-04T01:54:06.173Z,15.96
2022-09-04T01:56:41.288Z,15.87
2022-09-04T01:59:21.916Z,15.86
2022-09-04T02:01:55.148Z,15.85
2022-09-04T02:04:29.978Z,15.81
2022-09-04T02:07:04.544Z,15.81
2022-09-04T02:09:41.965Z,15.80
2022-09-04T02:12:18.998Z,15.76
2022-09-04T02:14:56.934Z,15.69
2022-09-04T02:17:37.342Z,15.73
2022-09-04T02:20:18.071Z,15.76
2022-09-04T02:22:55.530Z,15.80
2022-09-04T02:25:29.712Z,15.78
2022-09-04T02:28:10.230Z,15.87
2022-09-04T02:30:54.244Z,15.94
2022-09-04T02:33:31.858Z,15.80
2022-09-04T02:36:06.734Z,15.79
2022-09-04T02:38:44.849Z,15.76
2022-09-04T02:41:22.243Z,15.79
2022-09-04T02:44:02.986Z,15.78
2022-09-04T02:46:43.381Z,15.74
2022-09-04T02:49:21.962Z,15.70
2022-09-04T02:52:02.002Z,15.68
2022-09-04T02:54:49.974Z,15.73
2022-09-04T02:57:29.378Z,15.60
2022-09-04T03:00:07.196Z,15.62
2022-09-04T03:02:40.162Z,15.61
2022-09-04T03:05:19.646Z,15.69
2022-09-04T03:07:57.314Z,15.77
2022-09-04T03:10:32.143Z,15.73
2022-09-04T03:13:06.393Z,15.75
2022-09-04T03:15:41.405Z,15.57
2022-09-04T03:18:19.716Z,15.48
2022-09-04T03:20:54.506Z,15.70
2022-09-04T03:23:29.424Z,15.79
2022-09-04T03:26:22.648Z,15.66
2022-09-04T03:29:01.838Z,15.58
2022-09-04T03:31:34.514Z,15.45
2022-09-04T03:34:18.801Z,15.38
2022-09-04T03:37:01.110Z,15.35
2022-09-04T03:39:40.089Z,15.28
2022-09-04T03:42:17.014Z,15.26
2022-09-04T03:44:57.789Z,15.22
2022-09-04T03:47:34.443Z,15.21
2022-09-04T03:50:13.820Z,15.11
2022-09-04T03:52:55.208Z,15.12
2022-09-04T03:55:40.086Z,15.07
2022-09-04T03:58:19.109Z,15.15
2022-09-04T04:00:57.334Z,15.17
2022-09-04T04:03:57.153Z,15.16
2022-09-04T04:06:37.937Z,15.21
2022-09-04T04:09:25.570Z,15.15
2022-09-04T04:12:17.310Z,15.14
2022-09-04T04:15:01.141Z,15.02
2022-09-04T04:17:53.014Z,15.07
2022-09-04T04:20:34.875Z,15.06
2022-09-04T04:23:24.153Z,15.04
2022-09-04T04:26:06.560Z,15.10
2022-09-04T04:29:13.807Z,15.26
2022-09-04T04:32:11.263Z,15.19
2022-09-04T04:34:53.932Z,15.11
2022-09-04T04:37:32.177Z,15.07
2022-09-04T04:40:09.430Z,14.98
2022-09-04T04:42:47.552Z,15.03
2022-09-04T04:45:42.292Z,15.10
2022-09-04T04:48:38.760Z,15.07
2022-09-04T04:51:24.368Z,15.01
2022-09-04T04:53:58.774Z,15.09
2022-09-04T04:56:35.066Z,15.08
2022-09-04T04:59:20.593Z,15.07
2022-09-04T05:01:56.870Z,15.15
2022-09-04T05:04:36.972Z,15.16
2022-09-04T05:07:11.774Z,15.15
2022-09-04T05:09:48.866Z,15.15
2022-09-04T05:12:30.159Z,15.07
2022-09-04T05:15:04.789Z,15.24
2022-09-04T05:17:38.854Z,15.17
2022-09-04T05:20:24.708Z,15.14
2022-09-04T05:23:01.640Z,15.16
2022-09-04T05:25:39.234Z,15.10
2022-09-04T05:28:23.176Z,15.20
2022-09-04T05:31:02.447Z,15.21
2022-09-04T05:33:36.742Z,15.15
2022-09-04T05:36:13.547Z,15.12
2022-09-04T05:38:51.874Z,15.22
2022-09-04T05:41:34.802Z,15.29
2022-09-04T05:44:16.782Z,15.47
2022-09-04T05:46:59.176Z,15.67
2022-09-04T05:49:39.163Z,15.53
2022-09-04T05:52:31.791Z,15.39
2022-09-04T05:55:21.320Z,15.55
2022-09-04T05:58:03.256Z,15.99
2022-09-04T06:00:42.623Z,16.51
2022-09-04T06:03:27.910Z,16.52
2022-09-04T06:06:07.394Z,16.91
2022-09-04T06:09:24.023Z,17.18
2022-09-04T06:12:06.162Z,17.13
2022-09-04T06:14:54.386Z,17.90
2022-09-04T06:17:36.378Z,17.84
2022-09-04T06:20:24.661Z,18.42
2022-09-04T06:23:26.382Z,18.26
2022-09-04T06:26:23.485Z,18.16
2022-09-04T06:29:09.985Z,18.70
2022-09-04T06:31:57.870Z,19.25
2022-09-04T06:34:45.098Z,19.78
2022-09-04T06:37:21.838Z,19.84
2022-09-04T06:40:08.378Z,20.27
2022-09-04T06:42:51.113Z,20.58
2022-09-04T06:45:30.493Z,21.29
2022-09-04T06:48:09.365Z,21.99
2022-09-04T06:50:52.687Z,22.31
2022-09-04T06:53:30.982Z,22.41
2022-09-04T06:56:11.265Z,22.97
2022-09-04T06:59:19.866Z,22.51
2022-09-04T07:02:01.103Z,23.15
2022-09-04T07:04:41.126Z,24.15
2022-09-04T07:07:21.774Z,24.12
2022-09-04T07:09:57.650Z,24.39
2022-09-04T07:12:49.102Z,24.05
2022-09-04T07:15:57.071Z,24.66
2022-09-04T07:18:52.269Z,23.24
2022-09-04T07:21:27.819Z,22.55
2022-09-04T07:24:06.749Z,22.44
2022-09-04T07:26:40.678Z,21.73
2022-09-04T07:29:27.866Z,21.62
2022-09-04T07:32:02.371Z,20.97
2022-09-04T07:34:40.440Z,20.88
2022-09-04T07:37:27.085Z,20.37
2022-09-04T07:40:12.860Z,21.01
2022-09-04T07:42:48.208Z,20.85
2022-09-04T07:45:26.318Z,20.81
2022-09-04T07:48:05.869Z,21.04
2022-09-04T07:50:40.133Z,20.58
2022-09-04T07:53:24.960Z,20.67
2022-09-04T07:56:01.648Z,20.33
2022-09-04T07:58:55.708Z,20.61
2022-09-04T08:01:58.643Z,20.98
2022-09-04T08:04:47.258Z,21.05
2022-09-04T08:07:21.351Z,21.19
2022-09-04T08:10:13.246Z,21.00
2022-09-04T08:13:04.598Z,21.22
2022-09-04T08:15:43.285Z,21.57
2022-09-04T08:18:36.901Z,21.38
2022-09-04T08:21:17.912Z,20.83
2022-09-04T08:24:13.915Z,21.02
2022-09-04T08:26:50.620Z,21.04
2022-09-04T08:29:37.313Z,21.01
2022-09-04T08:32:22.406Z,21.32
2022-09-04T08:35:13.306Z,21.09
2022-09-04T08:37:57.430Z,21.08
2022-09-04T08:41:04.643Z,21.34
2022-09-04T08:43:52.079Z,21.36
2022-09-04T08:46:50.257Z,22.13
2022-09-04T08:49:58.288Z,22.33
2022-09-04T08:53:15.934Z,22.99
2022-09-04T08:55:56.740Z,23.88
2022-09-04T08:58:57.802Z,23.79
2022-09-04T09:02:03.417Z,24.10
2022-09-04T09:05:18.583Z,24.28
2022-09-04T09:08:37.290Z,25.00
2022-09-04T09:11:49.958Z,24.11
2022-09-04T09:14:56.191Z,23.57
2022-09-04T09:17:38.454Z,24.51
2022-09-04T09:20:28.289Z,24.99
2022-09-04T09:23:18.772Z,25.25
2022-09-04T09:25:57.417Z,26.20
2022-09-04T09:28:58.403Z,26.63
2022-09-04T09:32:03.541Z,26.64
2022-09-04T09:35:05.057Z,26.75
2022-09-04T09:38:04.498Z,26.79
2022-09-04T09:41:08.368Z,27.22
2022-09-04T09:44:05.042Z,27.11
2022-09-04T09:47:05.791Z,27.09
2022-09-04T09:50:10.242Z,28.02
2022-09-04T09:53:12.351Z,28.23
2022-09-04T09:56:04.748Z,27.75
2022-09-04T09:58:55.562Z,27.16
2022-09-04T10:01:44.909Z,27.39
2022-09-04T10:04:42.074Z,27.04
2022-09-04T10:07:48.894Z,27.46
2022-09-04T10:10:48.022Z,27.55
2022-09-04T10:13:57.959Z,27.93
2022-09-04T10:17:00.591Z,28.29
2022-09-04T10:19:56.601Z,28.05
2022-09-04T10:22:49.362Z,28.51
2022-09-04T10:25:42.032Z,28.44
2022-09-04T10:28:40.781Z,30.25
2022-09-04T10:31:38.150Z,29.97
2022-09-04T10:34:39.701Z,29.92
2022-09-04T10:37:25.687Z,29.58
2022-09-04T10:40:25.514Z,28.35
2022-09-04T10:43:12.326Z,27.13
2022-09-04T10:45:45.582Z,26.73
2022-09-04T10:48:39.290Z,26.88
2022-09-04T10:51:39.601Z,26.86
2022-09-04T10:54:43.202Z,26.63
2022-09-04T10:57:28.297Z,26.35
2022-09-04T11:00:07.842Z,26.64
2022-09-04T11:03:03.619Z,26.66
2022-09-04T11:06:11.062Z,26.64
2022-09-04T11:08:55.394Z,26.25
2022-09-04T11:11:45.465Z,26.58
2022-09-04T11:14:51.865Z,26.43
2022-09-04T11:17:55.303Z,25.97
2022-09-04T11:20:59.495Z,26.51
2022-09-04T11:24:02.642Z,26.65
2022-09-04T11:26:57.553Z,26.84
2022-09-04T11:29:47.743Z,26.58
2022-09-04T11:32:52.754Z,26.83
2022-09-04T11:35:46.648Z,25.63
2022-09-04T11:38:25.720Z,25.73
2022-09-04T11:41:32.803Z,26.19
2022-09-04T11:44:27.798Z,25.49
2022-09-04T11:47:24.471Z,25.66
2022-09-04T11:50:21.520Z,26.08
2022-09-04T11:53:13.852Z,26.01
2022-09-04T11:56:13.089Z,26.07
2022-09-04T11:59:05.845Z,26.18
2022-09-04T12:01:53.699Z,26.31
2022-09-04T12:04:40.567Z,26.31
2022-09-04T12:07:20.870Z,26.77
2022-09-04T12:10:13.912Z,26.38
2022-09-04T12:13:15.187Z,26.89
2022-09-04T12:16:01.591Z,27.34
2022-09-04T12:18:59.019Z,27.94
2022-09-04T12:21:53.729Z,27.82
2022-09-04T12:25:03.559Z,27.73
2022-09-04T12:28:15.761Z,28.22
2022-09-04T12:30:58.455Z,28.64
2022-09-04T12:33:56.709Z,28.95
2022-09-04T12:37:01.853Z,29.45
2022-09-04T12:40:09.296Z,29.31
2022-09-04T12:42:44.946Z,28.57
2022-09-04T12:45:22.593Z,27.78
2022-09-04T12:47:57.444Z,27.39
2022-09-04T12:50:33.673Z,27.49
2022-09-04T12:53:25.762Z,26.71
2022-09-04T12:56:05.737Z,26.93
2022-09-04T12:58:52.237Z,26.76
2022-09-04T13:01:32.136Z,26.73
2022-09-04T13:04:12.830Z,27.06
2022-09-04T13:06:53.469Z,27.10
2022-09-04T13:09:30.702Z,27.39
2022-09-04T13:12:13.174Z,27.23
2022-09-04T13:15:07.730Z,27.17
2022-09-04T13:17:45.633Z,27.04
2022-09-04T13:20:20.834Z,26.97
2022-09-04T13:23:05.415Z,27.45
2022-09-04T13:25:48.223Z,28.14
2022-09-04T13:28:25.618Z,28.35
2022-09-04T13:31:03.374Z,28.87
2022-09-04T13:33:49.318Z,28.78
2022-09-04T13:36:28.094Z,29.14
2022-09-04T13:39:23.263Z,29.40
2022-09-04T13:42:04.715Z,29.38
2022-09-04T13:44:57.675Z,29.27
2022-09-04T13:47:32.619Z,29.05
2022-09-04T13:50:10.023Z,29.14
2022-09-04T13:52:45.589Z,29.58
2022-09-04T13:55:19.027Z,29.46
2022-09-04T13:57:57.440Z,28.99
2022-09-04T14:00:29.422Z,28.90
2022-09-04T14:03:01.463Z,28.87
2022-09-04T14:05:32.602Z,29.60
2022-09-04T14:08:03.941Z,29.50
2022-09-04T14:11:06.859Z,29.85
2022-09-04T14:13:51.617Z,30.22
2022-09-04T14:16:23.734Z,30.36
2022-09-04T14:19:15.909Z,29.97
2022-09-04T14:22:02.454Z,30.09
2022-09-04T14:24:38.424Z,30.06
2022-09-04T14:27:14.888Z,30.55
2022-09-04T14:29:52.386Z,30.36
2022-09-04T14:32:25.044Z,30.26
2022-09-04T14:35:02.786Z,29.92
2022-09-04T14:37:39.035Z,29.96
2022-09-04T14:40:10.577Z,29.88
2022-09-04T14:42:44.957Z,30.25
2022-09-04T14:45:18.190Z,30.23
2022-09-04T14:47:53.629Z,30.10
2022-09-04T14:50:23.445Z,29.77
2022-09-04T14:52:53.806Z,29.10
2022-09-04T14:55:25.623Z,28.35
2022-09-04T14:57:57.624Z,28.54
2022-09-04T15:00:25.166Z,28.55
2022-09-04T15:03:02.259Z,28.33
2022-09-04T15:05:32.012Z,28.49
2022-09-04T15:08:01.029Z,28.48
2022-09-04T15:10:31.499Z,28.84
2022-09-04T15:13:20.216Z,29.14
2022-09-04T15:15:51.291Z,29.36
2022-09-04T15:18:26.625Z,29.32
2022-09-04T15:20:56.648Z,29.09
2022-09-04T15:23:28.015Z,29.19
2022-09-04T15:26:02.852Z,29.15
2022-09-04T15:28:38.309Z,29.37
2022-09-04T15:31:15.615Z,29.20
2022-09-04T15:33:46.356Z,28.90
2022-09-04T15:36:17.081Z,29.09
2022-09-04T15:38:50.585Z,28.89
2022-09-04T15:41:22.518Z,28.46
2022-09-04T15:43:52.039Z,28.51
2022-09-04T15:46:25.206Z,28.67
2022-09-04T15:48:58.630Z,28.44
2022-09-04T15:51:30.464Z,28.84
2022-09-04T15:54:16.899Z,28.83
2022-09-04T15:56:47.242Z,28.92
2022-09-04T15:59:18.182Z,28.81
2022-09-04T16:01:49.656Z,28.67
2022-09-04T16:04:26.277Z,28.56
2022-09-04T16:06:57.750Z,28.48
2022-09-04T16:09:28.836Z,28.17
2022-09-04T16:12:01.163Z,28.25
2022-09-04T16:14:30.985Z,28.52
2022-09-04T16:17:02.116Z,28.35
2022-09-04T16:19:35.550Z,28.41
2022-09-04T16:22:08.294Z,28.23
2022-09-04T16:24:40.335Z,28.17
2022-09-04T16:27:09.454Z,28.11
2022-09-04T16:29:38.925Z,27.86
2022-09-04T16:32:09.578Z,27.96
2022-09-04T16:34:41.133Z,28.04
2022-09-04T16:37:11.606Z,27.72
2022-09-04T16:39:45.640Z,27.74
2022-09-04T16:42:18.597Z,27.81
2022-09-04T16:44:48.977Z,27.88
2022-09-04T16:47:22.633Z,27.87
2022-09-04T16:49:55.764Z,27.82
2022-09-04T16:52:31.881Z,27.77
2022-09-04T16:55:06.381Z,27.43
2022-09-04T16:57:38.257Z,27.32
2022-09-04T17:00:09.435Z,27.37
2022-09-04T17:02:44.118Z,27.18
2022-09-04T17:05:18.821Z,27.26
2022-09-04T17:07:50.323Z,27.11
2022-09-04T17:10:25.122Z,26.85
2022-09-04T17:12:56.526Z,26.85
2022-09-04T17:15:27.879Z,26.82
2022-09-04T17:17:57.079Z,26.76
2022-09-04T17:21:55.210Z,26.65
2022-09-04T17:29:01.229Z,26.43
2022-09-04T17:29:12.103Z,26.26
2022-09-04T17:31:52.990Z,25.55
2022-09-04T17:40:00.453Z,25.15
2022-09-04T17:40:43.406Z,24.93
2022-09-04T17:40:51.889Z,24.60
2022-09-04T17:43:22.106Z,24.36
2022-09-04T17:46:02.627Z,24.24
2022-09-04T17:48:33.284Z,23.90
2022-09-04T17:51:03.621Z,23.55
2022-09-04T17:53:35.224Z,23.31
2022-09-04T17:56:09.260Z,23.17
2022-09-04T17:58:43.868Z,22.85
2022-09-04T18:01:17.940Z,22.67
2022-09-04T18:04:21.773Z,22.53
2022-09-04T18:06:55.667Z,22.33
2022-09-04T18:09:32.998Z,22.18
2022-09-04T18:12:11.012Z,22.05
2022-09-04T18:14:55.661Z,21.98
2022-09-04T18:17:45.068Z,21.86
2022-09-04T18:20:24.099Z,21.76
2022-09-04T18:23:20.708Z,21.58
2022-09-04T18:25:54.826Z,21.43
2022-09-04T18:28:27.919Z,21.28
2022-09-04T18:37:05.871Z,21.13
2022-09-04T18:37:16.263Z,21.00
2022-09-04T18:37:21.498Z,20.91
2022-09-04T18:39:51.585Z,20.77
2022-09-04T18:50:28.732Z,20.77
2022-09-04T18:50:32.849Z,20.72
2022-09-04T18:50:38.074Z,20.56
2022-09-04T18:51:21.099Z,20.48
2022-09-04T18:53:53.952Z,20.36
2022-09-04T18:56:27.462Z,20.24
2022-09-04T18:59:03.126Z,20.16
2022-09-04T19:01:41.181Z,20.06
2022-09-04T19:04:41.504Z,19.91
2022-09-04T19:07:12.775Z,19.83
2022-09-04T19:10:02.127Z,19.79
2022-09-04T19:12:47.678Z,19.70
2022-09-04T19:15:36.832Z,19.60
2022-09-04T19:18:15.418Z,19.47
2022-09-04T19:20:49.612Z,19.46
2022-09-04T19:23:29.167Z,19.45
2022-09-04T19:26:02.962Z,19.39
2022-09-04T19:28:50.922Z,19.31
2022-09-04T19:31:32.025Z,19.29
2022-09-04T19:34:08.769Z,19.16
2022-09-04T19:36:40.464Z,19.18
2022-09-04T19:45:57.101Z,19.07
2022-09-04T19:45:58.993Z,19.01
2022-09-04T19:46:13.885Z,18.98
2022-09-04T19:48:11.610Z,18.84
2022-09-04T19:53:30.005Z,18.84
2022-09-04T19:53:46.941Z,18.75
2022-09-04T19:56:29.483Z,18.73
2022-09-04T19:59:04.571Z,18.71
2022-09-04T20:01:42.125Z,18.62
2022-09-04T20:04:23.758Z,18.59
2022-09-04T20:06:55.520Z,18.50
2022-09-04T20:09:29.610Z,18.52
2022-09-04T20:12:11.250Z,18.46
2022-09-04T20:14:43.381Z,18.48
2022-09-04T20:17:27.301Z,18.37
2022-09-04T20:20:00.475Z,18.32
2022-09-04T20:22:34.198Z,18.24
2022-09-04T20:25:26.131Z,18.25
2022-09-04T20:27:58.740Z,18.22
2022-09-04T20:30:27.157Z,18.14
2022-09-04T20:33:02.199Z,18.14
2022-09-04T20:35:40.131Z,18.11
2022-09-04T20:38:23.360Z,18.08
2022-09-04T20:40:55.463Z,18.03
2022-09-04T20:43:32.073Z,18.03
2022-09-04T20:50:50.189Z,17.86
2022-09-04T20:52:54.032Z,17.83
2022-09-04T20:52:54.416Z,17.90
2022-09-04T20:55:34.469Z,17.77
2022-09-04T21:03:08.057Z,17.76
2022-09-04T21:03:21.499Z,17.72
2022-09-04T21:04:04.085Z,17.62
2022-09-04T21:06:38.275Z,17.54
2022-09-04T21:09:18.414Z,17.50
2022-09-04T21:11:48.673Z,17.47
2022-09-04T21:14:26.977Z,17.40
2022-09-04T21:17:34.822Z,17.30
2022-09-04T21:20:27.061Z,17.26
2022-09-04T21:23:21.676Z,17.26
2022-09-04T21:26:04.900Z,17.21
2022-09-04T21:28:50.623Z,17.11
2022-09-04T21:31:37.632Z,17.10
2022-09-04T21:34:43.245Z,17.10
2022-09-04T21:37:18.647Z,17.05
2022-09-04T21:40:43.254Z,17.05
2022-09-04T21:43:34.064Z,17.02
2022-09-04T21:46:20.637Z,16.98
2022-09-04T21:49:10.417Z,16.87
2022-09-04T21:52:05.770Z,16.92
2022-09-04T21:59:22.663Z,16.85
2022-09-04T22:02:27.021Z,16.82
2022-09-04T22:02:43.612Z,16.79
2022-09-04T22:04:08.946Z,16.72
2022-09-04T22:08:51.134Z,16.74
2022-09-04T22:13:29.102Z,16.66
2022-09-04T22:13:41.681Z,16.66
2022-09-04T22:16:01.802Z,16.63
2022-09-04T22:19:01.757Z,16.58
2022-09-04T22:21:48.859Z,16.62
2022-09-04T22:24:43.717Z,16.53
2022-09-04T22:28:07.923Z,16.49
2022-09-04T22:30:39.569Z,16.44
2022-09-04T22:34:11.773Z,16.42
2022-09-04T22:37:21.006Z,16.38
2022-09-04T22:40:18.192Z,16.33
2022-09-04T22:42:51.487Z,16.30
2022-09-04T22:45:40.865Z,16.28
2022-09-04T22:48:36.849Z,16.35
2022-09-04T22:51:24.393Z,16.30
2022-09-04T22:54:11.262Z,16.23
2022-09-04T22:56:53.436Z,16.18
2022-09-04T22:59:35.141Z,16.18
2022-09-04T23:02:54.153Z,16.15
2022-09-04T23:05:40.870Z,16.15
2022-09-04T23:13:48.100Z,16.09
2022-09-04T23:13:56.344Z,16.09
2022-09-04T23:14:56.133Z,16.06
2022-09-04T23:19:17.414Z,15.97
2022-09-04T23:26:33.874Z,15.91
2022-09-04T23:26:50.903Z,15.94
2022-09-04T23:27:28.809Z,15.91
2022-09-04T23:30:25.802Z,15.85
2022-09-04T23:33:31.727Z,15.86
2022-09-04T23:36:22.689Z,15.78
2022-09-04T23:39:54.575Z,15.84
2022-09-04T23:42:47.294Z,15.81
2022-09-04T23:45:28.715Z,15.81
2022-09-04T23:48:13.501Z,15.82
2022-09-04T23:50:52.906Z,15.67
2022-09-04T23:53:30.186Z,15.60
2022-09-04T23:56:08.609Z,15.69
2022-09-04T23:59:09.235Z,15.64
